Time;durP1;ratioP1;P1;durP2;ratioP2;P2;SDS_P1;SDS_P2;PMS_P1;PMS_P2;Temp;Humidity;BMP_temperature;BMP_pressure;BME280_temperature;BME280_humidity;BME280_pressure;Samples;Min_cycle;Max_cycle;Signal;HPM_P1;HPM_P2
2022/04/02 00:00:40;;;;;;;;;;;;;;;3.57;74.18;101304.09;4418193;32;20005;-68
2022/04/02 00:03:06;;;;;;;;;;;;;;;3.58;74.17;101309.28;4423170;32;20353;-68
2022/04/02 00:05:31;;;;;;;;;;;;;;;3.74;74.11;101309.88;4422102;32;19965;-68
2022/04/02 00:07:57;;;;;;;;;;;;;;;3.51;74.16;101314.75;4422449;32;19976;-68
2022/04/02 00:10:23;;;;;;;;;;;;;;;3.53;73.68;101309.59;4422039;32;19980;-68
2022/04/02 00:12:48;;;;;;;;;;;;;;;3.47;73.67;101321.47;4420314;32;19992;-68
2022/04/02 00:15:15;;;;;;;;;;;;;;;3.53;73.41;101317.94;4420124;32;20448;-68
2022/04/02 00:17:40;;;;;;;;;;;;;;;3.49;73.68;101317.09;4412245;32;20001;-68
2022/04/02 00:20:06;;;;;;;;;;;;;;;3.52;73.30;101315.53;4417309;32;19972;-68
2022/04/02 00:22:31;;;;;;;;;;;;;;;3.47;73.66;101313.88;4408901;32;19957;-68
2022/04/02 00:24:57;;;;;;;;;;;;;;;3.47;73.61;101321.47;4420052;32;20057;-68
2022/04/02 00:27:22;;;;;;;;;;;;;;;3.35;74.16;101319.69;4422259;32;19953;-68
2022/04/02 00:29:49;;;;;;;;;;;;;;;3.28;74.62;101318.81;4422255;32;20208;-68
2022/04/02 00:32:14;;;;;;;;;;;;;;;3.37;74.46;101317.34;4417892;32;21431;-68
2022/04/02 00:34:40;;;;;;;;;;;;;;;3.39;74.22;101326.13;4422850;32;20012;-68
2022/04/02 00:37:06;;;;;;;;;;;;;;;3.79;73.24;101317.09;4421770;32;20533;-68
2022/04/02 00:39:31;;;;;;;;;;;;;;;3.93;72.34;101320.06;4421397;32;20252;-68
2022/04/02 00:41:57;;;;;;;;;;;;;;;3.37;74.06;101320.12;4422468;32;19958;-68
2022/04/02 00:44:26;;;;;;;;;;;;;;;3.46;74.24;101317.88;4422963;32;20227;-68
2022/04/02 00:46:51;;;;;;;;;;;;;;;3.33;74.58;101321.25;4422500;32;20000;-68
2022/04/02 00:49:17;;;;;;;;;;;;;;;3.43;74.38;101315.03;4415613;32;19996;-68
2022/04/02 00:51:44;;;;;;;;;;;;;;;3.47;74.33;101327.03;4416764;32;20417;-68
2022/04/02 00:54:12;;;;;;;;;;;;;;;3.57;74.15;101318.81;4416606;32;20370;-68
2022/04/02 00:56:38;;;;;;;;;;;;;;;3.57;73.42;101323.56;4419156;32;20424;-68
2022/04/02 00:59:04;;;;;;;;;;;;;;;3.53;73.09;101325.53;4402407;32;20008;-68
2022/04/02 01:01:31;;;;;;;;;;;;;;;3.57;72.57;101324.38;4415280;32;19979;-68
2022/04/02 01:03:58;;;;;;;;;;;;;;;3.47;72.78;101324.25;4416654;32;20101;-68
2022/04/02 01:06:23;;;;;;;;;;;;;;;3.42;73.16;101327.34;4417394;32;20017;-68
2022/04/02 01:08:49;;;;;;;;;;;;;;;3.52;72.83;101323.91;4420123;32;19954;-68
2022/04/02 01:11:14;;;;;;;;;;;;;;;3.47;73.10;101319.47;4417973;32;19984;-68
2022/04/02 01:13:40;;;;;;;;;;;;;;;3.46;73.08;101319.84;4418076;32;20377;-68
2022/04/02 01:16:06;;;;;;;;;;;;;;;3.37;73.46;101322.09;4419489;32;19972;-68
2022/04/02 01:18:31;;;;;;;;;;;;;;;3.34;73.62;101328.41;4416430;32;19958;-68
2022/04/02 01:20:58;;;;;;;;;;;;;;;3.31;73.59;101324.41;4419325;32;20428;-68
2022/04/02 01:23:29;;;;;;;;;;;;;;;3.33;73.38;101324.03;4418793;32;19958;-68
2022/04/02 01:25:57;;;;;;;;;;;;;;;3.49;72.91;101321.87;4417562;32;19966;-68
2022/04/02 01:28:23;;;;;;;;;;;;;;;3.52;72.50;101327.50;4422064;32;19975;-68
2022/04/02 01:30:49;;;;;;;;;;;;;;;3.43;73.21;101317.81;4424747;32;20046;-68
2022/04/02 01:33:14;;;;;;;;;;;;;;;3.27;73.15;101317.19;4418342;32;20395;-68
2022/04/02 01:35:40;;;;;;;;;;;;;;;3.39;73.21;101314.19;4421273;32;20222;-68
2022/04/02 01:38:06;;;;;;;;;;;;;;;3.24;73.57;101312.38;4420873;32;20136;-68
2022/04/02 01:40:31;;;;;;;;;;;;;;;3.41;73.52;101309.06;4422116;32;20579;-69
2022/04/02 01:42:57;;;;;;;;;;;;;;;3.51;73.66;101313.94;4419385;32;19956;-68
2022/04/02 01:45:22;;;;;;;;;;;;;;;3.55;73.65;101312.00;4421238;32;19945;-68
2022/04/02 01:47:50;;;;;;;;;;;;;;;3.54;73.72;101310.41;4422203;32;19973;-68
2022/04/02 01:50:16;;;;;;;;;;;;;;;3.66;73.03;101315.75;4418523;32;21259;-68
2022/04/02 01:52:41;;;;;;;;;;;;;;;3.64;72.52;101307.78;4421297;32;19961;-68
2022/04/02 01:55:07;;;;;;;;;;;;;;;3.71;72.26;101307.84;4419699;32;19954;-68
2022/04/02 01:57:33;;;;;;;;;;;;;;;3.57;72.42;101309.66;4421401;32;19964;-68
2022/04/02 01:59:59;;;;;;;;;;;;;;;3.69;72.34;101312.22;4416617;32;19986;-68
2022/04/02 02:02:26;;;;;;;;;;;;;;;3.72;71.68;101314.22;4418707;32;19953;-68
2022/04/02 02:04:51;;;;;;;;;;;;;;;3.81;71.72;101307.19;4421595;32;20024;-68
2022/04/02 02:07:18;;;;;;;;;;;;;;;3.80;71.50;101313.94;4423135;32;20448;-68
2022/04/02 02:09:44;;;;;;;;;;;;;;;3.86;71.62;101303.25;4417776;32;20633;-69
2022/04/02 02:12:09;;;;;;;;;;;;;;;3.71;71.65;101304.25;4416267;32;19976;-68
2022/04/02 02:14:35;;;;;;;;;;;;;;;3.64;71.93;101306.97;4420961;32;19953;-68
2022/04/02 02:17:00;;;;;;;;;;;;;;;3.67;71.62;101309.81;4420960;32;19958;-68
2022/04/02 02:19:25;;;;;;;;;;;;;;;3.73;71.27;101315.81;4417256;32;19992;-68
2022/04/02 02:21:51;;;;;;;;;;;;;;;4.80;68.05;101314.59;4416332;32;19960;-68
2022/04/02 02:24:17;;;;;;;;;;;;;;;3.81;71.36;101318.31;4420971;32;19945;-68
2022/04/02 02:26:42;;;;;;;;;;;;;;;3.88;71.33;101309.25;4421119;32;20015;-68
2022/04/02 02:29:07;;;;;;;;;;;;;;;3.74;71.82;101314.63;4415299;32;20370;-69
2022/04/02 02:31:34;;;;;;;;;;;;;;;3.78;71.53;101304.37;4415847;32;19979;-68
2022/04/02 02:36:45;;;;;;;;;;;;;;;3.99;71.88;101307.41;4420293;32;20006;-68
2022/04/02 02:39:11;;;;;;;;;;;;;;;4.08;71.36;101310.66;4421679;32;20000;-68
2022/04/02 02:41:37;;;;;;;;;;;;;;;4.29;70.31;101307.34;4416347;32;19953;-68
2022/04/02 02:44:03;;;;;;;;;;;;;;;4.32;70.41;101310.16;4418131;32;20000;-68
2022/04/02 02:46:28;;;;;;;;;;;;;;;4.35;69.76;101314.16;4422126;32;19985;-68
2022/04/02 02:48:54;;;;;;;;;;;;;;;4.44;69.93;101307.09;4419466;32;20429;-68
2022/04/02 02:51:20;;;;;;;;;;;;;;;4.33;70.12;101314.56;4423492;32;20315;-68
2022/04/02 02:53:45;;;;;;;;;;;;;;;4.31;69.69;101305.75;4422873;32;19997;-68
2022/04/02 02:56:11;;;;;;;;;;;;;;;4.41;69.28;101305.06;4418640;32;19957;-69
2022/04/02 02:58:36;;;;;;;;;;;;;;;4.57;69.31;101302.03;4423426;32;19957;-68
2022/04/02 03:01:04;;;;;;;;;;;;;;;4.46;69.22;101298.34;4419481;32;20306;-68
2022/04/02 03:03:31;;;;;;;;;;;;;;;4.48;69.61;101302.34;4418595;32;20347;-68
2022/04/02 03:05:57;;;;;;;;;;;;;;;4.55;69.42;101301.63;4421060;32;20331;-68
2022/04/02 03:08:22;;;;;;;;;;;;;;;4.59;68.90;101300.47;4418204;32;20028;-68
2022/04/02 03:10:48;;;;;;;;;;;;;;;4.58;69.07;101304.44;4421935;32;20008;-68
2022/04/02 03:13:14;;;;;;;;;;;;;;;4.65;69.26;101306.47;4419899;32;19954;-68
2022/04/02 03:15:40;;;;;;;;;;;;;;;4.62;69.13;101305.28;4424649;32;20054;-68
2022/04/02 03:18:06;;;;;;;;;;;;;;;4.82;69.36;101298.25;4419625;32;19985;-68
2022/04/02 03:20:32;;;;;;;;;;;;;;;4.88;68.51;101305.06;4424485;32;20033;-68
2022/04/02 03:22:58;;;;;;;;;;;;;;;4.81;69.19;101293.88;4425982;32;19971;-68
2022/04/02 03:25:23;;;;;;;;;;;;;;;4.79;69.01;101295.47;4426264;32;19961;-68
2022/04/02 03:27:49;;;;;;;;;;;;;;;4.88;69.21;101299.50;4422817;32;20001;-68
2022/04/02 03:30:16;;;;;;;;;;;;;;;5.02;68.21;101296.03;4423986;32;20397;-69
2022/04/02 03:32:42;;;;;;;;;;;;;;;4.80;68.51;101291.47;4422675;32;19950;-69
2022/04/02 03:35:08;;;;;;;;;;;;;;;5.21;67.57;101292.97;4421832;32;19963;-69
2022/04/02 03:37:37;;;;;;;;;;;;;;;5.16;66.96;101296.91;4421925;32;20046;-69
2022/04/02 03:40:04;;;;;;;;;;;;;;;5.38;66.58;101292.28;4421255;32;19953;-68
2022/04/02 03:42:29;;;;;;;;;;;;;;;5.38;67.27;101290.31;4425114;32;20013;-68
2022/04/02 03:44:55;;;;;;;;;;;;;;;5.17;68.16;101289.34;4425501;32;19973;-69
2022/04/02 03:47:22;;;;;;;;;;;;;;;5.20;67.34;101291.37;4427087;32;20021;-69
2022/04/02 03:49:51;;;;;;;;;;;;;;;5.01;67.54;101289.66;4423358;32;20458;-69
2022/04/02 03:52:16;;;;;;;;;;;;;;;5.06;69.21;101289.28;4415951;32;20074;-69
2022/04/02 03:54:42;;;;;;;;;;;;;;;5.01;69.30;101284.09;4418790;32;19961;-68
2022/04/02 03:57:09;;;;;;;;;;;;;;;5.25;68.82;101291.00;4423490;32;19988;-68
2022/04/02 03:59:34;;;;;;;;;;;;;;;5.17;68.65;101294.94;4425086;32;20304;-69
2022/04/02 04:02:00;;;;;;;;;;;;;;;5.18;68.66;101293.72;4423969;32;19972;-68
2022/04/02 04:04:27;;;;;;;;;;;;;;;5.26;68.49;101295.41;4424966;32;20297;-68
2022/04/02 04:06:53;;;;;;;;;;;;;;;5.20;68.75;101294.16;4419286;32;19993;-68
2022/04/02 04:09:19;;;;;;;;;;;;;;;5.16;68.49;101291.34;4422356;32;19977;-69
2022/04/02 04:11:45;;;;;;;;;;;;;;;5.26;68.34;101290.63;4422238;32;19968;-69
2022/04/02 04:14:10;;;;;;;;;;;;;;;5.31;68.69;101287.44;4423776;32;20017;-68
2022/04/02 04:16:36;;;;;;;;;;;;;;;5.15;68.64;101291.72;4420228;32;19957;-68
2022/04/02 04:19:02;;;;;;;;;;;;;;;5.21;68.78;101298.53;4424407;32;20270;-68
2022/04/02 04:21:28;;;;;;;;;;;;;;;5.18;68.91;101302.09;4423873;32;20374;-69
2022/04/02 04:23:54;;;;;;;;;;;;;;;5.22;68.72;101298.16;4423828;32;19949;-69
2022/04/02 04:26:20;;;;;;;;;;;;;;;5.08;68.23;101295.28;4403872;32;20302;-69
2022/04/02 04:28:47;;;;;;;;;;;;;;;5.11;68.74;101294.50;4421033;32;19949;-68
2022/04/02 04:31:17;;;;;;;;;;;;;;;5.05;69.05;101301.63;4422025;32;20387;-68
2022/04/02 04:33:45;;;;;;;;;;;;;;;5.08;68.33;101291.69;4419321;32;19965;-68
2022/04/02 04:36:11;;;;;;;;;;;;;;;4.81;69.41;101302.25;4418494;32;19971;-68
2022/04/02 04:38:36;;;;;;;;;;;;;;;4.82;69.66;101300.25;4424991;32;19957;-68
2022/04/02 04:41:02;;;;;;;;;;;;;;;4.73;69.83;101294.22;4423438;32;19996;-68
2022/04/02 04:43:28;;;;;;;;;;;;;;;4.69;69.73;101296.97;4423641;32;19971;-68
2022/04/02 04:45:53;;;;;;;;;;;;;;;4.72;69.91;101301.75;4420438;32;19953;-68
2022/04/02 04:48:20;;;;;;;;;;;;;;;4.80;69.69;101297.84;4425451;32;20102;-68
2022/04/02 04:50:46;;;;;;;;;;;;;;;4.78;69.85;101303.00;4422355;32;19987;-68
2022/04/02 04:53:12;;;;;;;;;;;;;;;4.55;70.64;101312.75;4422673;32;19994;-68
2022/04/02 04:55:37;;;;;;;;;;;;;;;4.53;70.74;101307.56;4421958;32;20304;-68
2022/04/02 04:58:03;;;;;;;;;;;;;;;4.59;70.49;101313.59;4420331;32;20000;-68
2022/04/02 05:00:28;;;;;;;;;;;;;;;4.50;70.68;101307.53;4422068;32;19980;-68
2022/04/02 05:02:54;;;;;;;;;;;;;;;4.53;70.64;101306.75;4424013;32;19972;-68
2022/04/02 05:05:19;;;;;;;;;;;;;;;4.39;70.69;101313.03;4421818;32;20295;-68
2022/04/02 05:07:45;;;;;;;;;;;;;;;4.38;71.53;101316.19;4419951;32;19991;-68
2022/04/02 05:10:11;;;;;;;;;;;;;;;4.35;71.71;101322.53;4419676;32;19976;-68
2022/04/02 05:12:37;;;;;;;;;;;;;;;4.36;72.21;101322.16;4423290;32;20008;-68
2022/04/02 05:15:03;;;;;;;;;;;;;;;4.35;71.96;101314.94;4422119;32;20413;-68
2022/04/02 05:17:29;;;;;;;;;;;;;;;4.31;72.46;101316.91;4422017;32;19984;-68
2022/04/02 05:19:55;;;;;;;;;;;;;;;4.33;72.29;101325.69;4422764;32;19954;-68
2022/04/02 05:22:20;;;;;;;;;;;;;;;4.31;71.94;101332.81;4424616;32;19972;-68
2022/04/02 05:24:48;;;;;;;;;;;;;;;4.36;71.47;101329.69;4423551;32;20299;-68
2022/04/02 05:27:14;;;;;;;;;;;;;;;4.27;71.87;101332.78;4420088;32;20596;-68
2022/04/02 05:29:39;;;;;;;;;;;;;;;4.45;71.46;101330.97;4423096;32;20005;-68
2022/04/02 05:32:05;;;;;;;;;;;;;;;4.46;71.65;101338.16;4421609;32;20313;-68
2022/04/02 05:34:31;;;;;;;;;;;;;;;4.44;71.77;101339.72;4417544;32;20334;-68
2022/04/02 05:36:56;;;;;;;;;;;;;;;4.41;71.77;101346.84;4424189;32;20304;-68
2022/04/02 05:39:23;;;;;;;;;;;;;;;4.49;71.65;101340.19;4420751;32;20450;-68
2022/04/02 05:41:48;;;;;;;;;;;;;;;4.33;72.47;101349.97;4419803;32;20361;-68
2022/04/02 05:44:14;;;;;;;;;;;;;;;4.37;72.38;101342.44;4423588;32;19957;-68
2022/04/02 05:46:39;;;;;;;;;;;;;;;4.14;72.92;101337.81;4419097;32;20139;-68
2022/04/02 05:49:05;;;;;;;;;;;;;;;4.30;72.73;101337.59;4418864;32;19949;-68
2022/04/02 05:51:31;;;;;;;;;;;;;;;4.36;72.37;101338.06;4414506;32;19996;-68
2022/04/02 05:53:59;;;;;;;;;;;;;;;4.36;71.87;101347.22;4421427;32;19961;-68
2022/04/02 05:56:26;;;;;;;;;;;;;;;4.34;71.77;101344.00;4425829;32;19953;-68
2022/04/02 05:58:52;;;;;;;;;;;;;;;4.32;71.79;101349.16;4424782;32;19950;-68
2022/04/02 06:01:18;;;;;;;;;;;;;;;4.34;71.86;101348.78;4419100;32;20369;-68
2022/04/02 06:03:49;;;;;;;;;;;;;;;4.40;71.69;101350.84;4412546;32;20103;-68
2022/04/02 06:06:19;;;;;;;;;;;;;;;4.41;71.63;101352.44;4422708;32;20596;-68
2022/04/02 06:08:54;;;;;;;;;;;;;;;4.38;71.26;101355.97;4422745;32;19958;-68
2022/04/02 06:11:26;;;;;;;;;;;;;;;4.45;71.77;101356.06;4417048;32;19957;-68
2022/04/02 06:13:53;;;;;;;;;;;;;;;4.45;71.44;101358.84;4419378;32;20351;-68
2022/04/02 06:16:19;;;;;;;;;;;;;;;4.43;71.25;101366.78;4421885;32;19996;-68
2022/04/02 06:18:45;;;;;;;;;;;;;;;4.45;71.56;101369.19;4421962;32;19968;-68
2022/04/02 06:21:11;;;;;;;;;;;;;;;4.63;71.28;101370.97;4422058;32;20386;-68
2022/04/02 06:23:37;;;;;;;;;;;;;;;4.52;71.29;101367.28;4426544;32;20038;-68
2022/04/02 06:26:03;;;;;;;;;;;;;;;4.54;71.05;101373.25;4425052;32;19976;-69
2022/04/02 06:28:28;;;;;;;;;;;;;;;4.64;70.76;101369.00;4420581;32;19985;-68
2022/04/02 06:30:56;;;;;;;;;;;;;;;4.76;70.73;101374.31;4425138;32;19979;-68
2022/04/02 06:33:21;;;;;;;;;;;;;;;4.68;71.12;101379.00;4424137;32;20353;-69
2022/04/02 06:35:48;;;;;;;;;;;;;;;4.91;70.39;101382.41;4421748;32;19957;-69
2022/04/02 06:38:13;;;;;;;;;;;;;;;4.96;70.09;101390.41;4425354;32;20250;-68
2022/04/02 06:40:39;;;;;;;;;;;;;;;5.15;68.97;101381.81;4422477;32;20039;-68
2022/04/02 06:43:04;;;;;;;;;;;;;;;5.44;67.84;101394.00;4425379;32;19991;-68
2022/04/02 06:45:30;;;;;;;;;;;;;;;5.66;67.72;101401.31;4421902;32;19972;-68
2022/04/02 06:47:55;;;;;;;;;;;;;;;5.43;68.15;101395.97;4425810;32;19949;-68
2022/04/02 06:50:21;;;;;;;;;;;;;;;5.67;67.15;101403.72;4424682;32;20025;-68
2022/04/02 06:52:46;;;;;;;;;;;;;;;5.54;66.94;101405.25;4426350;32;19962;-68
2022/04/02 06:55:13;;;;;;;;;;;;;;;5.70;66.52;101410.50;4421088;32;20237;-68
2022/04/02 06:57:41;;;;;;;;;;;;;;;5.92;65.80;101406.69;4423400;32;20220;-68
2022/04/02 07:00:11;;;;;;;;;;;;;;;5.79;65.88;101411.78;4424148;32;19972;-68
2022/04/02 07:02:40;;;;;;;;;;;;;;;5.87;65.93;101410.66;4422331;32;19964;-68
2022/04/02 07:05:08;;;;;;;;;;;;;;;5.89;65.47;101419.44;4423830;32;19965;-68
2022/04/02 07:07:35;;;;;;;;;;;;;;;6.10;65.06;101427.94;4425895;32;19957;-69
2022/04/02 07:10:04;;;;;;;;;;;;;;;6.07;64.66;101420.34;4421115;32;19956;-69
2022/04/02 07:12:30;;;;;;;;;;;;;;;6.21;65.01;101422.41;4418499;32;19992;-68
2022/04/02 07:14:55;;;;;;;;;;;;;;;6.11;65.20;101421.16;4419280;32;19954;-68
2022/04/02 07:17:21;;;;;;;;;;;;;;;6.05;65.32;101422.72;4422726;32;20317;-68
2022/04/02 07:19:48;;;;;;;;;;;;;;;6.05;65.38;101421.94;4425189;32;19964;-68
2022/04/02 07:22:13;;;;;;;;;;;;;;;6.06;65.02;101424.34;4425453;32;19989;-68
2022/04/02 07:24:40;;;;;;;;;;;;;;;6.05;65.20;101425.50;4423459;32;20023;-68
2022/04/02 07:27:07;;;;;;;;;;;;;;;5.99;65.59;101431.88;4419367;32;20007;-68
2022/04/02 07:29:33;;;;;;;;;;;;;;;5.95;65.56;101440.22;4424209;32;19992;-68
2022/04/02 07:31:59;;;;;;;;;;;;;;;7.03;62.52;101443.84;4412957;32;19985;-69
2022/04/02 07:34:25;;;;;;;;;;;;;;;6.92;63.04;101445.81;4422514;32;19953;-68
2022/04/02 07:37:10;;;;;;;;;;;;;;;6.33;64.34;101441.62;4423876;32;19969;-68
2022/04/02 07:42:34;;;;;;;;;;;;;;;6.88;64.21;101465.41;3951423;32;15726510;-69
2022/04/02 07:47:43;;;;;;;;;;;;;;;6.85;64.62;101462.56;3955211;32;15747578;-69
2022/04/02 07:50:09;;;;;;;;;;;;;;;6.85;64.62;101462.56;4426700;32;19983;-69
2022/04/02 07:52:36;;;;;;;;;;;;;;;6.57;65.09;101465.28;4430594;32;19957;-69
2022/04/02 07:55:04;;;;;;;;;;;;;;;6.69;63.75;101467.72;4431101;32;19946;-69
2022/04/02 07:57:40;;;;;;;;;;;;;;;6.65;64.81;101464.09;4428051;32;20353;-69
2022/04/02 08:00:06;;;;;;;;;;;;;;;7.03;64.50;101460.63;4434185;32;19960;-69
2022/04/02 08:02:40;;;;;;;;;;;;;;;7.31;62.88;101480.25;4430862;32;19996;-69
2022/04/02 08:05:07;;;;;;;;;;;;;;;7.78;63.47;101477.03;4431823;32;20036;-69
2022/04/02 08:07:34;;;;;;;;;;;;;;;8.19;62.00;101480.97;4427450;32;19965;-69
2022/04/02 08:10:00;;;;;;;;;;;;;;;8.64;60.18;101491.28;4431206;32;20592;-69
2022/04/02 08:12:26;;;;;;;;;;;;;;;9.02;59.25;101484.66;4426193;32;19961;-69
2022/04/02 08:14:52;;;;;;;;;;;;;;;9.68;56.61;101486.19;4430334;32;19976;-69
2022/04/02 08:17:19;;;;;;;;;;;;;;;9.64;56.39;101485.41;4434635;32;19958;-69
2022/04/02 08:19:45;;;;;;;;;;;;;;;9.99;54.26;101490.72;4430415;32;20322;-69
2022/04/02 08:22:11;;;;;;;;;;;;;;;10.03;53.27;101491.47;4431241;32;19973;-69
2022/04/02 08:24:36;;;;;;;;;;;;;;;10.23;53.53;101493.72;4431085;32;19953;-69
2022/04/02 08:27:03;;;;;;;;;;;;;;;9.91;54.44;101494.00;4426655;32;19980;-69
2022/04/02 08:29:49;;;;;;;;;;;;;;;10.41;53.87;101492.31;4428616;32;19964;-69
2022/04/02 08:32:19;;;;;;;;;;;;;;;11.09;52.01;101493.84;4426679;32;19986;-69
2022/04/02 08:34:54;;;;;;;;;;;;;;;11.63;50.45;101500.31;4431224;32;20839;-69
2022/04/02 08:37:40;;;;;;;;;;;;;;;12.53;48.95;101501.87;4427946;32;19966;-69
2022/04/02 08:40:25;;;;;;;;;;;;;;;13.34;45.82;101504.56;4428004;32;20001;-69
2022/04/02 08:45:32;;;;;;;;;;;;;;;14.16;43.72;101506.97;3948036;32;15854599;-69
2022/04/02 08:48:17;;;;;;;;;;;;;;;14.16;43.72;101506.97;4433873;32;20310;-70
2022/04/02 08:50:47;;;;;;;;;;;;;;;13.95;42.87;101502.66;4432324;32;20386;-70
2022/04/02 08:53:22;;;;;;;;;;;;;;;14.27;41.11;101510.34;4431044;32;20414;-70
2022/04/02 08:55:50;;;;;;;;;;;;;;;14.33;41.65;101511.37;4432992;32;20428;-69
2022/04/02 08:58:25;;;;;;;;;;;;;;;14.69;40.17;101514.81;4425485;32;19971;-70
2022/04/02 09:01:02;;;;;;;;;;;;;;;14.88;39.59;101515.91;4430779;32;19949;-69
2022/04/02 09:03:48;;;;;;;;;;;;;;;14.66;39.52;101517.78;4428685;32;19998;-69
2022/04/02 09:06:27;;;;;;;;;;;;;;;14.95;39.35;101518.53;4432042;32;20006;-70
2022/04/02 09:14:16;;;;;;;;;;;;;;;15.14;37.90;101528.87;3954674;32;15723298;-70
2022/04/02 09:27:23;;;;;;;;;;;;;;;16.09;36.43;101532.31;3954659;32;15723576;-69
2022/04/02 09:35:21;;;;;;;;;;;;;;;15.94;36.59;101546.19;3951586;32;15728510;-70
2022/04/02 09:38:06;;;;;;;;;;;;;;;15.94;36.59;101546.19;4430592;32;20603;-70
2022/04/02 09:40:36;;;;;;;;;;;;;;;15.85;36.61;101540.41;4430441;32;19990;-70
2022/04/02 09:43:09;;;;;;;;;;;;;;;16.23;36.10;101542.37;4427003;32;20308;-70
2022/04/02 09:45:44;;;;;;;;;;;;;;;16.05;35.52;101540.16;4427586;32;20011;-70
2022/04/02 09:48:17;;;;;;;;;;;;;;;15.94;34.19;101540.53;4426968;32;20339;-70
2022/04/02 09:50:44;;;;;;;;;;;;;;;15.83;35.24;101542.91;4425285;32;20279;-70
2022/04/02 09:53:14;;;;;;;;;;;;;;;15.51;36.53;101536.66;4426678;32;20454;-70
2022/04/02 10:01:09;;;;;;;;;;;;;;;14.59;36.89;101549.91;3952015;32;15724634;-69
2022/04/02 10:03:39;;;;;;;;;;;;;;;14.59;36.89;101549.91;4433063;32;20243;-70
2022/04/02 10:09:03;;;;;;;;;;;;;;;15.13;37.03;101544.31;3953746;32;15722381;-70
2022/04/02 10:11:30;;;;;;;;;;;;;;;15.13;37.03;101544.31;4427102;32;20021;-69
2022/04/02 10:13:58;;;;;;;;;;;;;;;14.91;35.41;101537.69;4431114;32;20264;-69
2022/04/02 10:16:24;;;;;;;;;;;;;;;15.47;34.47;101538.84;4429174;32;19950;-69
2022/04/02 10:18:52;;;;;;;;;;;;;;;15.92;34.16;101537.34;4426474;32;19996;-69
2022/04/02 10:21:19;;;;;;;;;;;;;;;16.42;31.93;101549.84;4430542;32;19953;-69
2022/04/02 10:23:50;;;;;;;;;;;;;;;17.01;30.98;101541.19;4429657;32;19993;-69
2022/04/02 10:26:16;;;;;;;;;;;;;;;17.36;31.52;101543.47;4430166;32;20001;-69
2022/04/02 10:34:03;;;;;;;;;;;;;;;19.34;27.60;101553.66;3948901;32;15717834;-70
2022/04/02 10:36:29;;;;;;;;;;;;;;;19.34;27.60;101553.66;4430910;32;19965;-70
2022/04/02 10:38:56;;;;;;;;;;;;;;;18.70;27.72;101552.09;4411598;32;20191;-70
2022/04/02 10:41:22;;;;;;;;;;;;;;;17.83;28.09;101554.63;4426991;32;19971;-70
2022/04/02 10:46:28;;;;;;;;;;;;;;;16.66;30.82;101551.81;3953625;32;15724497;-69
2022/04/02 10:48:56;;;;;;;;;;;;;;;16.35;32.65;101550.88;4424905;32;19967;-69
2022/04/02 10:51:23;;;;;;;;;;;;;;;15.67;34.70;101545.06;4428254;32;20291;-69
2022/04/02 10:53:53;;;;;;;;;;;;;;;15.22;35.82;101544.44;4430034;32;19949;-69
2022/04/02 10:56:23;;;;;;;;;;;;;;;14.95;36.45;101546.88;4424474;32;19958;-69
2022/04/02 10:58:49;;;;;;;;;;;;;;;14.66;35.97;101549.72;4429286;32;20044;-69
2022/04/02 11:01:17;;;;;;;;;;;;;;;14.47;36.45;101544.19;4425970;32;19994;-70
2022/04/02 11:03:46;;;;;;;;;;;;;;;14.28;36.16;101539.44;4427478;32;20071;-70
2022/04/02 11:06:31;;;;;;;;;;;;;;;14.49;35.32;101538.87;4430085;32;19993;-70
2022/04/02 11:08:57;;;;;;;;;;;;;;;13.82;35.36;101543.44;4426245;32;19972;-69
2022/04/02 11:11:24;;;;;;;;;;;;;;;14.47;35.16;101542.16;4420270;32;20297;-69
2022/04/02 11:14:00;;;;;;;;;;;;;;;14.73;36.02;101537.41;4426260;32;19967;-69
2022/04/02 11:16:38;;;;;;;;;;;;;;;15.41;34.45;101540.62;4424853;32;19957;-69
2022/04/02 11:21:57;;;;;;;;;;;;;;;15.61;32.39;101535.53;4425408;32;20460;-69
2022/04/02 11:24:25;;;;;;;;;;;;;;;15.23;31.94;101532.66;4426607;32;20008;-70
2022/04/02 11:26:53;;;;;;;;;;;;;;;15.52;32.30;101539.06;4429582;32;19994;-70
2022/04/02 11:29:22;;;;;;;;;;;;;;;15.74;32.15;101534.28;4428657;32;19972;-69
2022/04/02 11:31:49;;;;;;;;;;;;;;;15.78;31.74;101537.00;4424979;32;20379;-68
2022/04/02 11:34:19;;;;;;;;;;;;;;;16.35;31.82;101544.41;4423343;32;20389;-70
2022/04/02 11:36:48;;;;;;;;;;;;;;;16.61;31.70;101540.25;4424117;32;19995;-70
2022/04/02 11:39:33;;;;;;;;;;;;;;;16.80;31.53;101539.94;4427686;32;20395;-70
2022/04/02 11:42:01;;;;;;;;;;;;;;;16.51;30.87;101544.25;4427489;32;20362;-70
2022/04/02 11:44:35;;;;;;;;;;;;;;;16.76;30.45;101542.13;4426834;32;20422;-70
2022/04/02 11:47:02;;;;;;;;;;;;;;;16.65;31.43;101540.91;4428843;32;20412;-69
2022/04/02 11:49:34;;;;;;;;;;;;;;;16.47;31.05;101546.44;4424716;32;20198;-69
2022/04/02 11:54:41;;;;;;;;;;;;;;;16.63;28.92;101563.31;3968999;31;15718194;-71
2022/04/02 11:57:08;;;;;;;;;;;;;;;16.63;28.92;101563.31;4441341;32;19957;-69
2022/04/02 11:59:35;;;;;;;;;;;;;;;16.91;29.11;101554.53;4442860;32;19993;-71
2022/04/02 12:02:01;;;;;;;;;;;;;;;17.30;27.91;101553.06;4436224;32;19954;-70
2022/04/02 12:04:27;;;;;;;;;;;;;;;17.08;27.46;101553.09;4445104;32;20368;-71
2022/04/02 12:07:02;;;;;;;;;;;;;;;17.07;27.76;101564.94;4442883;32;19964;-71
2022/04/02 12:09:28;;;;;;;;;;;;;;;16.72;27.13;101549.97;4436816;32;19992;-70
2022/04/02 12:11:58;;;;;;;;;;;;;;;16.87;27.03;101559.56;4431902;32;19989;-70
2022/04/02 12:14:33;;;;;;;;;;;;;;;16.72;28.37;101558.50;4429104;32;20362;-69
2022/04/02 12:17:00;;;;;;;;;;;;;;;16.63;28.89;101563.31;4443301;32;20393;-70
2022/04/02 12:22:18;;;;;;;;;;;;;;;17.43;28.00;101560.28;3963856;31;15719401;-70
2022/04/02 12:24:48;;;;;;;;;;;;;;;18.33;26.68;101554.12;4449675;32;19997;-70
2022/04/02 12:27:17;;;;;;;;;;;;;;;19.21;25.41;101564.44;4449473;32;19973;-70
2022/04/02 12:29:45;;;;;;;;;;;;;;;18.56;25.46;101559.22;4447516;32;20386;-70
2022/04/02 12:32:10;;;;;;;;;;;;;;;17.90;26.34;101557.16;4446738;32;19996;-70
2022/04/02 12:34:36;;;;;;;;;;;;;;;18.11;25.54;101553.44;4446294;32;19973;-69
2022/04/02 12:37:02;;;;;;;;;;;;;;;18.09;25.00;101550.25;4447491;32;19991;-69
2022/04/02 12:39:29;;;;;;;;;;;;;;;17.81;25.98;101555.09;4450145;32;20030;-69
2022/04/02 12:41:54;;;;;;;;;;;;;;;18.42;25.44;101559.88;4448775;32;19957;-69
2022/04/02 12:44:21;;;;;;;;;;;;;;;19.93;23.69;101557.69;4449576;32;20387;-69
2022/04/02 12:46:47;;;;;;;;;;;;;;;20.90;22.60;101554.66;4451935;32;20360;-69
2022/04/02 12:49:33;;;;;;;;;;;;;;;21.89;21.23;101563.50;4447996;32;20000;-70
2022/04/02 12:52:11;;;;;;;;;;;;;;;22.81;20.48;101556.72;4449699;32;19952;-70
2022/04/02 12:54:36;;;;;;;;;;;;;;;23.27;20.26;101557.53;4450732;32;19973;-70
2022/04/02 12:57:17;;;;;;;;;;;;;;;23.87;20.12;101565.87;4452863;32;20359;-70
2022/04/02 12:59:44;;;;;;;;;;;;;;;23.88;19.48;101561.72;4449323;32;20170;-70
2022/04/02 13:02:14;;;;;;;;;;;;;;;24.16;19.07;101565.59;4451495;32;20566;-70
2022/04/02 13:04:42;;;;;;;;;;;;;;;24.23;19.78;101568.00;4452737;32;20052;-70
2022/04/02 13:07:14;;;;;;;;;;;;;;;23.81;19.96;101558.53;4449812;32;19945;-70
2022/04/02 13:09:40;;;;;;;;;;;;;;;22.47;19.95;101569.03;4442091;32;20456;-70
2022/04/02 13:12:08;;;;;;;;;;;;;;;21.60;21.90;101573.69;4447877;32;19980;-69
2022/04/02 13:22:24;;;;;;;;;;;;;;;18.05;26.52;101565.91;3932895;32;15722613;-70
2022/04/02 13:25:09;;;;;;;;;;;;;;;18.05;26.52;101565.91;4406266;32;20404;-70
2022/04/02 13:27:55;;;;;;;;;;;;;;;17.60;25.87;101566.53;4404814;32;19962;-70
2022/04/02 13:30:27;;;;;;;;;;;;;;;17.66;25.69;101561.81;4402792;32;20001;-70
2022/04/02 13:35:47;;;;;;;;;;;;;;;18.64;24.92;101554.00;3953750;32;15724616;-70
2022/04/02 13:41:03;;;;;;;;;;;;;;;17.84;25.41;101561.91;3949474;32;15724288;-70
2022/04/02 13:43:30;;;;;;;;;;;;;;;18.35;25.01;101559.34;4430447;32;19964;-70
2022/04/02 13:45:59;;;;;;;;;;;;;;;18.68;24.03;101558.28;4426874;32;19999;-70
2022/04/02 13:48:26;;;;;;;;;;;;;;;18.42;24.11;101559.06;4425739;32;19990;-70
2022/04/02 13:50:55;;;;;;;;;;;;;;;19.48;23.68;101559.47;4423310;32;20031;-70
2022/04/02 13:53:29;;;;;;;;;;;;;;;21.21;23.40;101568.56;4427479;32;19953;-70
2022/04/02 13:56:02;;;;;;;;;;;;;;;21.37;24.33;101583.19;4429113;32;19979;-70